Terminal Aerodrome Forecast
Issued by NWS

Home | Current Version | Previous Version | Text Only | Print | Product List | Glossary On
Versions: 1 2 3 4 5 6 7 8 9 10 11 12 13 14 15 16 17 18 19
000
FTUS45 KRIW 281700
TAFJAC
TAF
KJAC 281725Z 2818/2918 VRB05KT P6SM VCSH SCT025 OVC040
      TEMPO 2818/2820 -SHRA
     FM282000 21009KT P6SM -SHRA VCTS SCT030 BKN060CB
     FM290200 34008KT P6SM SCT030 BKN060
      AMD LTD TO CLD VIS AND WIND=

USA.gov is the U.S. government's official web portal to all federal, state and local government web resources and services.